Terminal Aerodrome Forecast
Issued by NWS Newport/Morehead City, NC

Home | Current Version | Previous Version | Graphics & Text | Print | Product List | Glossary On
Versions: 1 2 3 4 5 6 7 8 9 10 11 12 13 14 15 16 17 18 19 20
000
FTUS42 KMHX 282300 RRA
TAFEWN
TAF
KEWN 282350Z 2900/2924 00000KT P6SM SKC
     FM290500 00000KT 3SM BR FEW010 BKN180
     FM291200 01005KT P6SM BKN100=

USA.gov is the U.S. government's official web portal to all federal, state and local government web resources and services.